M I D A S
Marine Information and Data Acquisition System
Tripno 877 of the Zeeleeuw from 2005-04-05 07:01:00 to 2005-04-05 10:52:00
Back to CruiseResearch ActivitiesStationsMapUnderway DataData graphs

EquipmentUnitsComment
TimeDGPSUTC
LatitudeDGPSDM.mWGS84
LongitudeDGPSDM.mWGS84
TemperatureSBE03/SBE38deg celciusITS90
ConductivitySBE21S/mITS90
SalinitySBE21 Practical Salinity Units
ChlorophylAChelsea fluorimeterg/lCalibrated in Aceton
Missing or incorrect values are displayed as -999
Sea surface data collected by the RV Zeeleeuw from 2005-04-05 07:01:10 to 2005-04-05 10:52:35
Time Latitude Longitude Temperature Conductivity Salinity ChlorophylA
2005-04-05 07:02:16 51°13.621 2°56.013 15.8354 0.017441 0.09735 -0.848668
2005-04-05 07:03:15 51°13.658 2°55.904 15.9117 0.017441 0.097367 -0.848668
2005-04-05 07:04:16 51°13.68 2°55.785 15.914 0.017441 0.097381 -0.882377
2005-04-05 07:05:15 51°13.692 2°55.76 16.072 0.017441 0.097394 -0.848668
2005-04-05 07:06:15 51°13.745 2°55.732 15.5417 0.017441 0.097402 -0.882377
2005-04-05 07:07:15 51°13.8 2°55.665 15.7088 0.017441 0.097411 -0.848668
2005-04-05 07:08:15 51°13.858 2°55.607 15.8486 0.017441 0.097428 -0.848668
2005-04-05 07:09:15 51°13.925 2°55.538 15.7871 0.017441 0.097442 -0.848668
2005-04-05 07:10:15 51°13.972 2°55.483 15.896 0.017441 0.097461 -0.848668
2005-04-05 07:11:15 51°13.996 2°55.456 15.6647 0.017441 0.097475 -0.848668
2005-04-05 07:12:15 51°14.009 2°55.45 15.2743 0.017441 0.097497 -0.848668
2005-04-05 07:13:15 51°14.011 2°55.448 15.3293 0.017441 0.097524 -0.848668
2005-04-05 07:14:15 51°14.011 2°55.448 15.494 0.017441 0.097545 -0.848668
2005-04-05 07:15:16 51°14.011 2°55.447 15.4167 0.017441 0.097562 -0.882377
2005-04-05 07:16:15 51°14.012 2°55.448 15.4632 0.017441 0.097583 -0.848668
2005-04-05 07:17:16 51°14.01 2°55.447 15.4972 0.017441 0.097598 -0.882377
2005-04-05 07:18:16 51°14.008 2°55.446 15.5263 0.017441 0.097613 -0.882377
2005-04-05 07:19:15 51°14.01 2°55.448 15.5579 0.017441 0.097626 -0.848668
2005-04-05 07:20:15 51°14.011 2°55.449 15.5583 0.017441 0.097638 -0.848668
2005-04-05 07:21:15 51°14.011 2°55.449 15.5669 0.017441 0.097654 -0.882377
2005-04-05 07:22:15 51°14.01 2°55.448 15.6005 0.017337 0.097097 -0.882377
2005-04-05 07:23:15 51°14.01 2°55.448 15.5933 0.017337 0.097108 -0.848668
2005-04-05 07:24:15 51°14.009 2°55.447 15.6458 0.017337 0.097121 -0.848668
2005-04-05 07:25:16 51°14.01 2°55.447 15.647 0.017337 0.097134 -0.848668
2005-04-05 07:26:15 51°14.01 2°55.447 15.6862 0.017337 0.097144 -0.882377
2005-04-05 07:27:15 51°14.012 2°55.449 15.6764 0.017337 0.097156 -0.848668
2005-04-05 07:28:15 51°14.012 2°55.448 15.6987 0.017337 0.097167 -0.848668
2005-04-05 07:29:15 51°14.013 2°55.449 15.7209 0.017337 0.097178 -0.848668
2005-04-05 07:30:15 51°14.012 2°55.449 15.7649 0.017337 0.097188 -0.882377
2005-04-05 07:31:15 51°14.012 2°55.448 15.7465 0.017337 0.097198 -0.848668
2005-04-05 07:32:15 51°14.012 2°55.449 15.7692 0.017337 0.09721 -0.882377
2005-04-05 07:33:16 51°14.012 2°55.449 15.8058 0.017337 0.097218 -0.848668
2005-04-05 07:34:15 51°14.012 2°55.448 15.7886 0.017337 0.097228 -0.848668
2005-04-05 07:35:15 51°14.011 2°55.449 15.8161 0.017337 0.097239 -0.848668
2005-04-05 07:36:15 51°14.01 2°55.447 15.8204 0.017337 0.097247 -0.848668
2005-04-05 07:37:15 51°14.011 2°55.448 15.8344 0.017337 0.097256 -0.882377
2005-04-05 07:38:15 51°14.01 2°55.447 15.8524 0.017337 0.097263 -0.882377
2005-04-05 07:39:16 51°14.012 2°55.449 15.8534 0.017337 0.097273 -0.882377
2005-04-05 07:40:15 51°14.012 2°55.448 15.9094 0.017337 0.097283 -0.848668
2005-04-05 07:41:15 51°14.013 2°55.449 15.9291 0.017337 0.097292 -0.848668
2005-04-05 07:42:15 51°14.013 2°55.449 15.9688 0.017337 0.0973 -0.848668
2005-04-05 07:43:15 51°14.012 2°55.449 15.9509 0.017337 0.097309 -0.848668
2005-04-05 07:44:15 51°14.012 2°55.448 15.9654 0.017337 0.097316 -0.882377
2005-04-05 07:45:15 51°14.011 2°55.448 15.978 0.017337 0.097323 -0.882377
2005-04-05 07:46:15 51°14.012 2°55.448 15.9933 0.017337 0.09733 -0.848668
2005-04-05 07:47:16 51°14.011 2°55.448 16.0261 0.017337 0.097337 -0.882377
2005-04-05 07:48:15 51°14.011 2°55.448 16.0463 0.017233 0.096774 -0.882377
2005-04-05 07:49:15 51°14.011 2°55.448 16.0449 0.017233 0.096781 -0.814958
2005-04-05 07:50:15 51°14.011 2°55.448 16.0308 0.017233 0.096787 -0.848668
2005-04-05 07:51:15 51°14.011 2°55.447 16.0737 0.017233 0.096794 -0.848668
2005-04-05 07:52:15 51°14.011 2°55.447 16.1001 0.017233 0.096801 -0.848668
2005-04-05 07:53:15 51°14.011 2°55.448 16.1245 0.017233 0.096807 -0.848668
2005-04-05 07:54:15 51°14.012 2°55.448 16.1388 0.017233 0.096814 -0.882377
2005-04-05 07:55:15 51°14.012 2°55.448 16.1562 0.017233 0.09682 -0.848668
2005-04-05 07:56:15 51°14.012 2°55.448 16.1655 0.017233 0.096826 -0.882377
2005-04-05 07:57:15 51°14.013 2°55.448 16.1883 0.017233 0.096834 -0.848668
2005-04-05 07:58:15 51°14.013 2°55.448 16.2173 0.017233 0.096839 -0.848668
2005-04-05 07:59:15 51°14.012 2°55.448 16.2312 0.017233 0.096846 -0.848668
2005-04-05 08:00:15 51°14.012 2°55.448 16.2197 0.017233 0.096851 -0.848668
2005-04-05 08:01:15 51°14.012 2°55.447 16.2444 0.017233 0.096856 -0.848668
2005-04-05 08:02:15 51°14.011 2°55.447 16.2565 0.017233 0.09686 -0.848668
2005-04-05 08:03:15 51°14.011 2°55.447 16.2806 0.017233 0.096863 -0.848668
2005-04-05 08:04:15 51°14.011 2°55.447 16.2847 0.017233 0.096869 -0.882377
2005-04-05 08:05:15 51°14.011 2°55.447 16.2938 0.017233 0.096876 -0.848668
2005-04-05 08:06:15 51°14.012 2°55.448 16.3149 0.017233 0.096877 -0.882377
2005-04-05 08:07:15 51°14.012 2°55.447 16.326 0.017233 0.096881 -0.848668
2005-04-05 08:08:16 51°14.012 2°55.448 16.32 0.017233 0.096886 -0.848668
2005-04-05 08:09:14 51°14.012 2°55.448 16.3368 0.017233 0.096891 -0.848668
2005-04-05 08:10:15 51°14.013 2°55.448 16.3768 0.017233 0.096894 -0.882377
2005-04-05 08:11:15 51°14.013 2°55.448 16.4811 0.017233 0.097029 -0.848668
2005-04-05 08:12:15 51°14.012 2°55.448 16.4174 0.017233 0.097005 -0.882377
2005-04-05 08:13:15 51°14.012 2°55.448 16.454 0.017233 0.097048 -0.882377
2005-04-05 08:14:15 51°14.012 2°55.448 16.4447 0.017233 0.097056 -0.882377
2005-04-05 08:15:15 51°14.012 2°55.447 16.4775 0.017233 0.09715 -0.848668
2005-04-05 08:16:15 51°14.011 2°55.447 16.5284 0.188386 1.289809 -0.882377
2005-04-05 08:17:15 51°14.011 2°55.448 16.5349 0.09019 0.591951 -0.848668
2005-04-05 08:18:15 51°14.011 2°55.448 16.5401 0.071997 0.4618 -0.848668
2005-04-05 08:19:15 51°14.011 2°55.448 16.5852 0.067008 0.423064 -0.848668
2005-04-05 08:20:15 51°14.011 2°55.448 16.591 0.066072 0.405472 -0.848668
2005-04-05 08:21:15 51°14.011 2°55.448 16.6028 0.067215 0.399826 -0.848668
2005-04-05 08:22:15 51°14.011 2°55.448 16.5575 0.067007 0.40086 -0.848668
2005-04-05 08:23:15 51°14.011 2°55.448 16.5653 0.065864 0.401052 -0.848668
2005-04-05 08:24:15 51°14.011 2°55.448 16.6016 0.064409 0.401607 -0.848668
2005-04-05 08:25:16 51°14.011 2°55.448 16.5803 0.062227 0.396142 -0.848668
2005-04-05 08:26:16 51°14.011 2°55.447 16.6059 0.061187 0.394994 -0.848668
2005-04-05 08:27:15 51°14.01 2°55.447 16.6221 0.06046 0.393972 -0.882377
2005-04-05 08:28:15 51°14.01 2°55.447 16.6474 0.059732 0.392103 -0.882377
2005-04-05 08:29:16 51°14.011 2°55.448 16.6621 0.059317 0.392415 -0.848668
2005-04-05 08:30:16 51°14.011 2°55.448 16.6442 0.058797 0.391511 -0.882377
2005-04-05 08:31:15 51°14.011 2°55.447 16.6859 0.058381 0.390616 -0.848668
2005-04-05 08:32:15 51°14.01 2°55.447 16.6845 0.05807 0.390051 -0.882377
2005-04-05 08:33:15 51°14.01 2°55.446 16.6757 0.057862 0.389682 -0.848668
2005-04-05 08:34:15 51°14.01 2°55.446 16.6966 0.057654 0.389054 -0.882377
2005-04-05 08:35:15 51°14.01 2°55.445 16.6921 0.05755 0.388972 -0.882377
2005-04-05 08:36:15 51°14.01 2°55.446 16.8854 0.057446 0.388797 -0.882377
2005-04-05 08:37:15 51°14.01 2°55.446 16.8188 0.057446 0.389295 -0.781249
2005-04-05 08:38:15 51°14.01 2°55.446 16.8039 0.057342 0.388714 -0.814958
2005-04-05 08:39:16 51°14.011 2°55.448 16.8075 0.057238 0.387901 -0.814958
2005-04-05 08:40:15 51°14.012 2°55.449 16.816 0.057238 0.387826 -0.814958
2005-04-05 08:41:15 51°14.012 2°55.448 16.8257 0.057238 0.387976 -0.848668
2005-04-05 08:42:16 51°14.012 2°55.449 16.8296 0.057238 0.388009 -0.781249
2005-04-05 08:43:15 51°14.012 2°55.448 16.857 0.057238 0.388067 -0.814958
2005-04-05 08:44:15 51°14.011 2°55.447 16.8535 0.057134 0.387353 -0.814958
2005-04-05 08:45:16 51°14.011 2°55.448 16.8505 0.057134 0.387129 -0.848668
2005-04-05 08:46:15 51°14.012 2°55.448 16.8741 0.057134 0.387253 -0.814958
2005-04-05 08:47:15 51°14.011 2°55.448 16.8888 0.057134 0.387435 -0.848668
2005-04-05 08:48:15 51°14.012 2°55.448 16.8679 0.05703 0.386696 -0.814958
2005-04-05 08:49:15 51°14.012 2°55.448 16.9085 0.05703 0.38668 -0.848668
2005-04-05 08:50:16 51°14.012 2°55.448 16.8873 0.05703 0.386622 -0.814958
2005-04-05 08:51:16 51°14.012 2°55.448 16.9164 0.05703 0.386605 -0.848668
2005-04-05 08:52:15 51°14.012 2°55.448 16.9287 0.05703 0.386539 -0.848668
2005-04-05 08:53:15 51°14.011 2°55.448 16.9415 0.05703 0.386407 -0.814958
2005-04-05 08:54:16 51°14.011 2°55.448 16.958 0.05703 0.386078 -0.848668
2005-04-05 08:55:15 51°14.011 2°55.448 16.9519 0.05703 0.385667 -0.848668
2005-04-05 08:56:15 51°14.011 2°55.448 16.9628 0.057134 0.386239 -0.848668
2005-04-05 08:57:15 51°14.012 2°55.448 16.9819 0.057134 0.386321 -0.848668
2005-04-05 08:58:15 51°14.011 2°55.447 16.9858 0.05703 0.385667 -0.848668
2005-04-05 08:59:16 51°14.011 2°55.448 16.991 0.05703 0.385634 -0.814958
2005-04-05 09:00:15 51°14.011 2°55.448 16.9955 0.05703 0.385494 -0.814958
2005-04-05 09:01:15 51°14.011 2°55.448 16.9887 0.05755 0.388748 -0.848668
2005-04-05 09:02:15 51°14.011 2°55.448 17.0294 0.057654 0.389336 -0.848668
2005-04-05 09:03:15 51°14.011 2°55.448 17.0445 0.057654 0.38941 -0.848668
2005-04-05 09:04:15 51°14.011 2°55.448 17.0473 0.05755 0.388666 -0.848668
2005-04-05 09:05:16 51°14.011 2°55.448 17.0459 0.05755 0.388476 -0.848668
2005-04-05 09:06:15 51°14.011 2°55.448 17.0504 0.057654 0.38912 -0.848668
2005-04-05 09:07:15 51°14.011 2°55.448 17.0813 0.057654 0.388889 -0.848668
2005-04-05 09:08:16 51°14.011 2°55.447 17.0711 0.057654 0.388634 -0.848668
2005-04-05 09:09:16 51°14.011 2°55.448 17.1027 0.057654 0.388551 -0.848668
2005-04-05 09:10:15 51°14.012 2°55.447 17.0974 0.057654 0.388617 -0.848668
2005-04-05 09:11:15 51°14.012 2°55.447 17.098 0.057654 0.388428 -0.814958
2005-04-05 09:12:15 51°14.012 2°55.447 17.1083 0.057654 0.388222 -0.848668
2005-04-05 09:13:15 51°14.012 2°55.446 17.1296 0.057758 0.38875 -0.848668
2005-04-05 09:14:15 51°14.012 2°55.447 17.1317 0.057758 0.388586 -0.814958
2005-04-05 09:15:15 51°14.012 2°55.446 17.1422 0.057758 0.388479 -0.814958
2005-04-05 09:16:15 51°14.011 2°55.447 17.1547 0.057758 0.388495 -0.848668
2005-04-05 09:17:15 51°14.011 2°55.447 17.1526 0.057758 0.388438 -0.814958
2005-04-05 09:18:15 51°14.011 2°55.447 17.1674 0.057758 0.388347 -0.814958
2005-04-05 09:19:15 51°14.011 2°55.447 17.1773 0.057758 0.388208 -0.848668
2005-04-05 09:20:15 51°14.011 2°55.447 17.1859 0.057758 0.388109 -0.814958
2005-04-05 09:21:16 51°14.011 2°55.448 17.1847 0.057758 0.388052 -0.814958
2005-04-05 09:22:16 51°14.011 2°55.449 17.2101 0.057758 0.387962 -0.814958
2005-04-05 09:23:16 51°14.011 2°55.448 17.192 0.057758 0.388019 -0.848668
2005-04-05 09:24:16 51°14.011 2°55.448 17.1996 0.057758 0.387823 -0.848668
2005-04-05 09:25:16 51°14.011 2°55.448 17.2284 0.057758 0.387627 -0.848668
2005-04-05 09:26:15 51°14.011 2°55.447 17.2185 0.057862 0.388145 -0.848668
2005-04-05 09:27:16 51°14.011 2°55.447 17.2498 0.057862 0.388014 -0.848668
2005-04-05 09:28:15 51°14.01 2°55.447 17.2609 0.057862 0.388014 -0.848668
2005-04-05 09:29:15 51°14.01 2°55.447 17.2572 0.057862 0.388129 -0.848668
2005-04-05 09:30:15 51°14.01 2°55.447 17.27 0.057758 0.387586 -0.814958
2005-04-05 09:31:16 51°14.01 2°55.448 17.2697 0.057758 0.3877 -0.814958
2005-04-05 09:32:15 51°14.01 2°55.448 17.2841 0.057758 0.3877 -0.848668
2005-04-05 09:33:15 51°14.011 2°55.447 17.3088 0.057758 0.387692 -0.882377
2005-04-05 09:34:15 51°14.011 2°55.447 17.3244 0.057758 0.387684 -0.814958
2005-04-05 09:35:16 51°14.011 2°55.447 17.3201 0.057758 0.387651 -0.814958
2005-04-05 09:36:15 51°14.012 2°55.447 17.2238 0.057862 0.388358 -0.882377
2005-04-05 09:37:15 51°14.012 2°55.448 17.2913 0.057862 0.388333 -0.848668
2005-04-05 09:38:15 51°14.011 2°55.448 17.2607 0.057966 0.389057 -0.848668
2005-04-05 09:39:15 51°14.011 2°55.448 17.3005 0.057966 0.389024 -0.848668
2005-04-05 09:40:16 51°14.011 2°55.448 17.3162 0.05807 0.389681 -0.882377
2005-04-05 09:41:15 51°14.011 2°55.448 17.3278 0.05807 0.389525 -0.848668
2005-04-05 09:42:16 51°14.011 2°55.448 17.3358 0.058174 0.390084 -0.848668
2005-04-05 09:43:16 51°14.011 2°55.448 17.3512 0.058278 0.390609 -0.848668
2005-04-05 09:44:16 51°14.011 2°55.447 17.3446 0.058381 0.391175 -0.848668
2005-04-05 09:45:16 51°14.011 2°55.447 17.3881 0.058381 0.391019 -0.848668
2005-04-05 09:46:15 51°14.011 2°55.447 17.3837 0.058485 0.391567 -0.848668
2005-04-05 09:47:16 51°14.011 2°55.448 17.3983 0.058589 0.392124 -0.848668
2005-04-05 09:48:15 51°14.011 2°55.448 17.3971 0.058589 0.392091 -0.882377
2005-04-05 09:49:15 51°14.011 2°55.448 17.3941 0.058693 0.392474 -0.848668
2005-04-05 09:50:15 51°14.011 2°55.447 17.3964 0.058797 0.393005 -0.848668
2005-04-05 09:51:15 51°14.01 2°55.447 17.4134 0.058901 0.39361 -0.848668
2005-04-05 09:52:15 51°14.01 2°55.448 17.4081 0.058901 0.393429 -0.882377
2005-04-05 09:53:15 51°14.01 2°55.448 17.4155 0.059005 0.393983 -0.848668
2005-04-05 09:54:15 51°14.01 2°55.447 17.4151 0.059109 0.394546 -0.882377
2005-04-05 09:55:14 51°14.01 2°55.447 17.4588 0.059109 0.394381 -0.882377
2005-04-05 09:56:16 51°14.011 2°55.448 17.4173 0.059213 0.394951 -0.848668
2005-04-05 09:57:16 51°14.011 2°55.448 17.4233 0.059213 0.394769 -0.814958
2005-04-05 09:58:15 51°14.01 2°55.448 17.435 0.059317 0.395323 -0.882377
2005-04-05 09:59:14 51°14.011 2°55.449 17.4537 0.059317 0.395158 -0.882377
2005-04-05 10:00:15 51°14.011 2°55.449 17.4456 0.059421 0.39571 -0.882377
2005-04-05 10:01:15 51°14.011 2°55.448 17.4799 0.059421 0.395545 -0.882377
2005-04-05 10:02:16 51°14.011 2°55.449 17.4765 0.059525 0.396106 -0.848668
2005-04-05 10:03:15 51°14.011 2°55.448 17.477 0.059525 0.395949 -0.848668
2005-04-05 10:04:15 51°14.012 2°55.45 17.5035 0.059629 0.396492 -0.882377
2005-04-05 10:05:16 51°14.012 2°55.449 17.5005 0.059629 0.396343 -0.848668
2005-04-05 10:06:15 51°14.011 2°55.448 17.5303 0.059629 0.396203 -0.882377
2005-04-05 10:07:15 51°14.011 2°55.449 17.5142 0.059733 0.396738 -0.848668
2005-04-05 10:08:15 51°14.011 2°55.449 17.528 0.059733 0.396581 -0.882377
2005-04-05 10:09:16 51°14.011 2°55.449 17.5353 0.059836 0.39714 -0.848668
2005-04-05 10:10:14 51°14.012 2°55.449 17.5809 0.059836 0.396966 -0.882377
2005-04-05 10:11:15 51°14.011 2°55.449 17.5677 0.059836 0.396834 -0.848668
2005-04-05 10:12:15 51°14.012 2°55.449 17.5472 0.05994 0.397368 -0.848668
2005-04-05 10:13:16 51°14.011 2°55.448 17.5884 0.05994 0.397227 -0.848668
2005-04-05 10:14:14 51°14.011 2°55.449 17.5924 0.05994 0.397055 -0.882377
2005-04-05 10:15:16 51°14.011 2°55.449 17.5815 0.060044 0.397628 -0.848668
2005-04-05 10:16:16 51°14.012 2°55.449 17.6276 0.060044 0.397464 -0.848668
2005-04-05 10:17:16 51°13.998 2°55.47 17.4976 0.060044 0.397324 -0.882377
2005-04-05 10:18:15 51°13.944 2°55.53 17.6195 0.060148 0.397839 -0.848668
2005-04-05 10:19:16 51°13.901 2°55.569 17.6094 0.060148 0.397707 -0.882377
2005-04-05 10:20:15 51°13.892 2°55.574 17.5874 0.060148 0.397568 -0.848668
2005-04-05 10:21:15 51°13.889 2°55.571 17.5949 0.060148 0.397395 -0.848668
2005-04-05 10:22:15 51°13.893 2°55.568 17.647 0.060252 0.397951 -0.882377
2005-04-05 10:23:15 51°13.915 2°55.558 17.6253 0.060252 0.397787 -0.848668
2005-04-05 10:24:16 51°13.966 2°55.537 17.6528 0.060252 0.397622 -0.848668
2005-04-05 10:25:15 51°14.024 2°55.498 17.6603 0.060356 0.398194 -0.848668
2005-04-05 10:26:16 51°14.078 2°55.459 17.6693 0.060356 0.39803 -0.882377
2005-04-05 10:27:15 51°14.126 2°55.426 17.6872 0.060356 0.397874 -0.882377
2005-04-05 10:28:15 51°14.178 2°55.389 17.7048 0.060356 0.39771 -0.882377
2005-04-05 10:29:15 51°14.223 2°55.34 17.7036 0.06046 0.398264 -0.848668
2005-04-05 10:30:16 51°14.264 2°55.271 17.6359 0.06046 0.398109 -0.848668
2005-04-05 10:31:15 51°14.306 2°55.184 17.7015 0.06046 0.397945 -0.848668
2005-04-05 10:32:15 51°14.358 2°55.059 17.7464 0.06046 0.397798 -0.848668
2005-04-05 10:33:15 51°14.406 2°54.81 17.4367 0.060564 0.398376 -0.848668
2005-04-05 10:34:15 51°14.434 2°54.499 17.5527 0.060564 0.398188 -0.882377
2005-04-05 10:35:15 51°14.474 2°54.208 17.752 0.060564 0.39809 -0.848668
2005-04-05 10:36:15 51°14.406 2°54.126 17.4794 0.060564 0.397983 -0.848668
2005-04-05 10:37:16 51°14.382 2°54.261 17.4951 0.060668 0.398503 -0.882377
2005-04-05 10:38:15 51°14.431 2°54.419 17.4312 0.060668 0.398267 -0.848668
2005-04-05 10:39:15 51°14.455 2°54.632 17.4613 0.060668 0.398234 -0.882377
2005-04-05 10:40:14 51°14.414 2°54.925 17.2691 0.060772 0.398819 -0.848668
2005-04-05 10:41:15 51°14.312 2°55.189 17.4859 0.060772 0.398623 -0.848668
2005-04-05 10:42:16 51°14.214 2°55.346 17.4552 0.060772 0.398484 -0.848668
2005-04-05 10:43:15 51°14.118 2°55.425 17.5432 0.060772 0.398329 -0.848668
2005-04-05 10:44:16 51°14.021 2°55.496 17.53 0.060772 0.398207 -0.848668
2005-04-05 10:45:15 51°13.927 2°55.564 17.5242 0.060876 0.398766 -0.882377
2005-04-05 10:46:15 51°13.832 2°55.633 17.5554 0.060876 0.39862 -0.848668
2005-04-05 10:47:15 51°13.748 2°55.723 17.5754 0.060876 0.398489 -0.848668
2005-04-05 10:48:15 51°13.689 2°55.823 17.5692 0.060876 0.398351 -0.882377
2005-04-05 10:49:15 51°13.648 2°55.917 17.5763 0.06098 0.398926 -0.848668
2005-04-05 10:50:16 51°13.618 2°56.004 17.5548 0.06098 0.398788 -0.848668
2005-04-05 10:51:16 51°13.602 2°56.069 17.6278 0.06098 0.39865 -0.848668
2005-04-05 10:52:16 51°13.593 2°56.102 17.6883 0.06098 0.39852 -0.848668